sensor_id;sensor_type;location;lat;lon;timestamp;temperature;humidity
49052;DHT22;34866;48.670;18.260;2023-02-15T00:01:51;64.50;2201.60
49052;DHT22;34866;48.670;18.260;2023-02-15T00:04:20;64.90;2201.60
49052;DHT22;34866;48.670;18.260;2023-02-15T00:06:47;64.60;2201.60
49052;DHT22;34866;48.670;18.260;2023-02-15T00:09:12;64.60;2201.60
49052;DHT22;34866;48.670;18.260;2023-02-15T00:11:39;64.60;2201.60
49052;DHT22;34866;48.670;18.260;2023-02-15T00:16:35;64.60;2201.60
49052;DHT22;34866;48.670;18.260;2023-02-15T00:19:03;64.60;2201.60
49052;DHT22;34866;48.670;18.260;2023-02-15T00:21:31;64.60;2201.60
49052;DHT22;34866;48.670;18.260;2023-02-15T00:23:59;64.70;2201.60
49052;DHT22;34866;48.670;18.260;2023-02-15T00:26:26;64.70;2201.60
49052;DHT22;34866;48.670;18.260;2023-02-15T00:28:53;64.60;2201.60
49052;DHT22;34866;48.670;18.260;2023-02-15T00:31:30;64.70;2201.60
49052;DHT22;34866;48.670;18.260;2023-02-15T00:34:07;64.80;2201.60
49052;DHT22;34866;48.670;18.260;2023-02-15T00:36:33;64.70;2201.60
49052;DHT22;34866;48.670;18.260;2023-02-15T00:38:59;64.70;2201.60
49052;DHT22;34866;48.670;18.260;2023-02-15T00:41:24;64.70;2201.60
49052;DHT22;34866;48.670;18.260;2023-02-15T00:43:52;64.70;2201.60
49052;DHT22;34866;48.670;18.260;2023-02-15T00:46:19;64.70;2201.60
49052;DHT22;34866;48.670;18.260;2023-02-15T00:48:44;64.70;2201.60
49052;DHT22;34866;48.670;18.260;2023-02-15T00:51:10;64.70;2201.60
49052;DHT22;34866;48.670;18.260;2023-02-15T00:53:37;64.80;2201.60
49052;DHT22;34866;48.670;18.260;2023-02-15T00:56:02;64.80;2201.60
49052;DHT22;34866;48.670;18.260;2023-02-15T00:58:31;64.80;2201.60
49052;DHT22;34866;48.670;18.260;2023-02-15T01:01:06;64.90;2201.60
49052;DHT22;34866;48.670;18.260;2023-02-15T01:03:33;64.90;2201.60
49052;DHT22;34866;48.670;18.260;2023-02-15T01:05:59;64.80;2201.60
49052;DHT22;34866;48.670;18.260;2023-02-15T01:08:25;64.80;2201.60
49052;DHT22;34866;48.670;18.260;2023-02-15T01:10:50;64.80;2201.60
49052;DHT22;34866;48.670;18.260;2023-02-15T01:13:18;64.80;2201.60
49052;DHT22;34866;48.670;18.260;2023-02-15T01:15:44;64.80;2201.60
49052;DHT22;34866;48.670;18.260;2023-02-15T01:18:11;64.90;2201.60
49052;DHT22;34866;48.670;18.260;2023-02-15T01:20:38;64.90;2201.60
49052;DHT22;34866;48.670;18.260;2023-02-15T01:23:07;89.60;2201.60
49052;DHT22;34866;48.670;18.260;2023-02-15T01:25:34;89.70;2176.00
49052;DHT22;34866;48.670;18.260;2023-02-15T01:28:00;89.60;2201.60
49052;DHT22;34866;48.670;18.260;2023-02-15T01:30:32;89.60;2201.60
49052;DHT22;34866;48.670;18.260;2023-02-15T01:32:58;89.70;2176.00
49052;DHT22;34866;48.670;18.260;2023-02-15T01:35:26;89.70;2176.00
49052;DHT22;34866;48.670;18.260;2023-02-15T01:37:52;64.90;2201.60
49052;DHT22;34866;48.670;18.260;2023-02-15T01:40:19;89.60;2201.60
49052;DHT22;34866;48.670;18.260;2023-02-15T01:42:51;89.70;2176.00
49052;DHT22;34866;48.670;18.260;2023-02-15T01:45:27;89.60;2201.60
49052;DHT22;34866;48.670;18.260;2023-02-15T01:48:20;89.60;2201.60
49052;DHT22;34866;48.670;18.260;2023-02-15T01:50:59;89.70;2176.00
49052;DHT22;34866;48.670;18.260;2023-02-15T01:53:38;89.70;2176.00
49052;DHT22;34866;48.670;18.260;2023-02-15T01:58:35;89.60;2201.60
49052;DHT22;34866;48.670;18.260;2023-02-15T02:01:02;89.60;2201.60
49052;DHT22;34866;48.670;18.260;2023-02-15T02:06:16;89.70;2176.00
49052;DHT22;34866;48.670;18.260;2023-02-15T02:08:43;89.60;2201.60
49052;DHT22;34866;48.670;18.260;2023-02-15T02:11:18;89.70;2176.00
49052;DHT22;34866;48.670;18.260;2023-02-15T02:13:45;89.70;2176.00
49052;DHT22;34866;48.670;18.260;2023-02-15T02:35:53;89.90;2176.00
49052;DHT22;34866;48.670;18.260;2023-02-15T02:38:44;90.00;2176.00
49052;DHT22;34866;48.670;18.260;2023-02-15T02:41:22;89.90;2176.00
49052;DHT22;34866;48.670;18.260;2023-02-15T02:47:10;90.00;2176.00
49052;DHT22;34866;48.670;18.260;2023-02-15T02:49:42;90.10;2176.00
49052;DHT22;34866;48.670;18.260;2023-02-15T02:52:43;89.90;2176.00
49052;DHT22;34866;48.670;18.260;2023-02-15T03:00:48;90.00;2176.00
49052;DHT22;34866;48.670;18.260;2023-02-15T03:03:27;90.00;2176.00
49052;DHT22;34866;48.670;18.260;2023-02-15T03:05:57;90.10;2176.00
49052;DHT22;34866;48.670;18.260;2023-02-15T03:08:36;90.00;2176.00
49052;DHT22;34866;48.670;18.260;2023-02-15T03:11:03;90.00;2176.00
49052;DHT22;34866;48.670;18.260;2023-02-15T03:13:30;89.90;2176.00
49052;DHT22;34866;48.670;18.260;2023-02-15T03:15:57;90.40;2176.00
49052;DHT22;34866;48.670;18.260;2023-02-15T03:18:47;90.10;2176.00
49052;DHT22;34866;48.670;18.260;2023-02-15T03:27:09;90.10;2176.00
49052;DHT22;34866;48.670;18.260;2023-02-15T03:29:37;90.30;2176.00
49052;DHT22;34866;48.670;18.260;2023-02-15T03:32:05;90.20;2176.00
49052;DHT22;34866;48.670;18.260;2023-02-15T03:34:32;90.20;2176.00
49052;DHT22;34866;48.670;18.260;2023-02-15T03:40:30;90.10;2176.00
49052;DHT22;34866;48.670;18.260;2023-02-15T03:43:21;90.10;2176.00
49052;DHT22;34866;48.670;18.260;2023-02-15T03:45:52;90.10;2176.00
49052;DHT22;34866;48.670;18.260;2023-02-15T03:48:36;90.00;2176.00
49052;DHT22;34866;48.670;18.260;2023-02-15T03:51:09;90.10;2176.00
49052;DHT22;34866;48.670;18.260;2023-02-15T03:53:56;90.00;2176.00
49052;DHT22;34866;48.670;18.260;2023-02-15T03:56:22;90.10;2176.00
49052;DHT22;34866;48.670;18.260;2023-02-15T03:58:48;90.10;2176.00
49052;DHT22;34866;48.670;18.260;2023-02-15T04:02:09;90.20;2176.00
49052;DHT22;34866;48.670;18.260;2023-02-15T04:04:43;90.20;2176.00
49052;DHT22;34866;48.670;18.260;2023-02-15T04:07:10;90.30;2176.00
49052;DHT22;34866;48.670;18.260;2023-02-15T04:09:35;90.20;2176.00
49052;DHT22;34866;48.670;18.260;2023-02-15T04:12:20;90.30;2176.00
49052;DHT22;34866;48.670;18.260;2023-02-15T04:14:47;90.40;2176.00
49052;DHT22;34866;48.670;18.260;2023-02-15T04:17:31;90.50;2176.00
49052;DHT22;34866;48.670;18.260;2023-02-15T04:19:57;90.40;2176.00
49052;DHT22;34866;48.670;18.260;2023-02-15T04:22:41;90.40;2176.00
49052;DHT22;34866;48.670;18.260;2023-02-15T04:25:26;90.40;2176.00
49052;DHT22;34866;48.670;18.260;2023-02-15T04:27:53;90.30;2176.00
49052;DHT22;34866;48.670;18.260;2023-02-15T04:30:21;90.30;2176.00
49052;DHT22;34866;48.670;18.260;2023-02-15T04:32:47;90.30;2176.00
49052;DHT22;34866;48.670;18.260;2023-02-15T04:35:13;90.30;2176.00
49052;DHT22;34866;48.670;18.260;2023-02-15T04:37:40;90.30;2176.00
49052;DHT22;34866;48.670;18.260;2023-02-15T04:40:10;90.40;2176.00
49052;DHT22;34866;48.670;18.260;2023-02-15T04:42:35;90.50;2176.00
49052;DHT22;34866;48.670;18.260;2023-02-15T04:45:02;90.40;2176.00
49052;DHT22;34866;48.670;18.260;2023-02-15T04:47:27;90.30;2176.00
49052;DHT22;34866;48.670;18.260;2023-02-15T04:49:54;90.40;2176.00
49052;DHT22;34866;48.670;18.260;2023-02-15T04:52:21;90.40;2176.00
49052;DHT22;34866;48.670;18.260;2023-02-15T04:54:47;90.30;2176.00
49052;DHT22;34866;48.670;18.260;2023-02-15T04:57:13;90.30;2176.00
49052;DHT22;34866;48.670;18.260;2023-02-15T04:59:40;90.40;2176.00
49052;DHT22;34866;48.670;18.260;2023-02-15T05:02:06;90.40;2176.00
49052;DHT22;34866;48.670;18.260;2023-02-15T05:04:31;90.40;2176.00
49052;DHT22;34866;48.670;18.260;2023-02-15T05:07:00;90.40;2176.00
49052;DHT22;34866;48.670;18.260;2023-02-15T05:09:27;90.40;2176.00
49052;DHT22;34866;48.670;18.260;2023-02-15T05:11:52;90.50;2176.00
49052;DHT22;34866;48.670;18.260;2023-02-15T05:14:18;115.30;2176.00
49052;DHT22;34866;48.670;18.260;2023-02-15T05:16:44;115.30;2176.00
49052;DHT22;34866;48.670;18.260;2023-02-15T05:19:09;115.20;2176.00
49052;DHT22;34866;48.670;18.260;2023-02-15T05:21:35;115.20;2176.00
49052;DHT22;34866;48.670;18.260;2023-02-15T05:24:01;115.20;2176.00
49052;DHT22;34866;48.670;18.260;2023-02-15T05:26:46;90.50;2176.00
49052;DHT22;34866;48.670;18.260;2023-02-15T05:29:38;90.50;2176.00
49052;DHT22;34866;48.670;18.260;2023-02-15T05:32:04;90.50;2176.00
49052;DHT22;34866;48.670;18.260;2023-02-15T05:34:30;90.50;2176.00
49052;DHT22;34866;48.670;18.260;2023-02-15T05:36:55;90.50;2176.00
49052;DHT22;34866;48.670;18.260;2023-02-15T05:39:21;90.50;2176.00
49052;DHT22;34866;48.670;18.260;2023-02-15T05:41:47;115.30;2176.00
49052;DHT22;34866;48.670;18.260;2023-02-15T05:44:12;115.40;2176.00
49052;DHT22;34866;48.670;18.260;2023-02-15T05:46:38;115.40;2176.00
49052;DHT22;34866;48.670;18.260;2023-02-15T05:49:04;115.40;2176.00
49052;DHT22;34866;48.670;18.260;2023-02-15T05:51:29;115.30;2176.00
49052;DHT22;34866;48.670;18.260;2023-02-15T05:53:55;115.20;2176.00
49052;DHT22;34866;48.670;18.260;2023-02-15T05:56:21;115.30;2176.00
49052;DHT22;34866;48.670;18.260;2023-02-15T05:58:47;115.20;2176.00
49052;DHT22;34866;48.670;18.260;2023-02-15T06:01:15;115.20;2176.00
49052;DHT22;34866;48.670;18.260;2023-02-15T06:03:42;115.20;2176.00
49052;DHT22;34866;48.670;18.260;2023-02-15T06:06:09;90.40;2176.00
49052;DHT22;34866;48.670;18.260;2023-02-15T06:08:36;90.10;2176.00
49052;DHT22;34866;48.670;18.260;2023-02-15T06:11:02;90.40;2176.00
49052;DHT22;34866;48.670;18.260;2023-02-15T06:13:29;90.40;2176.00
49052;DHT22;34866;48.670;18.260;2023-02-15T06:15:54;90.50;2176.00
49052;DHT22;34866;48.670;18.260;2023-02-15T06:18:22;90.40;2176.00
49052;DHT22;34866;48.670;18.260;2023-02-15T06:20:49;90.40;2176.00
49052;DHT22;34866;48.670;18.260;2023-02-15T06:23:16;90.40;2176.00
49052;DHT22;34866;48.670;18.260;2023-02-15T06:25:46;115.40;2176.00
49052;DHT22;34866;48.670;18.260;2023-02-15T06:28:13;90.40;2176.00
49052;DHT22;34866;48.670;18.260;2023-02-15T06:30:39;90.40;2176.00
49052;DHT22;34866;48.670;18.260;2023-02-15T06:33:04;90.30;2176.00
49052;DHT22;34866;48.670;18.260;2023-02-15T06:35:53;90.30;2176.00
49052;DHT22;34866;48.670;18.260;2023-02-15T06:38:20;90.20;2176.00
49052;DHT22;34866;48.670;18.260;2023-02-15T06:40:46;90.30;2176.00
49052;DHT22;34866;48.670;18.260;2023-02-15T06:43:11;90.00;2176.00
49052;DHT22;34866;48.670;18.260;2023-02-15T06:45:37;90.00;2176.00
49052;DHT22;34866;48.670;18.260;2023-02-15T06:48:03;90.00;2176.00
49052;DHT22;34866;48.670;18.260;2023-02-15T06:50:29;89.90;2176.00
49052;DHT22;34866;48.670;18.260;2023-02-15T06:52:56;89.70;2176.00
49052;DHT22;34866;48.670;18.260;2023-02-15T06:55:22;89.80;2176.00
49052;DHT22;34866;48.670;18.260;2023-02-15T06:57:48;64.90;2201.60
49052;DHT22;34866;48.670;18.260;2023-02-15T07:00:15;64.90;2201.60
49052;DHT22;34866;48.670;18.260;2023-02-15T07:02:41;64.80;2201.60
49052;DHT22;34866;48.670;18.260;2023-02-15T07:05:07;64.60;2201.60
49052;DHT22;34866;48.670;18.260;2023-02-15T07:07:32;38.40;2201.60
49052;DHT22;34866;48.670;18.260;2023-02-15T07:09:58;0.90;2201.60
49052;DHT22;34866;48.670;18.260;2023-02-15T07:12:23;26.00;2201.60
49052;DHT22;34866;48.670;18.260;2023-02-15T07:15:14;51.20;1792.00
49052;DHT22;34866;48.670;18.260;2023-02-15T07:17:40;26.30;691.20
49052;DHT22;34866;48.670;18.260;2023-02-15T07:20:12;52.10;179.20
49052;DHT22;34866;48.670;18.260;2023-02-15T07:22:39;77.60;6476.80
49052;DHT22;34866;48.670;18.260;2023-02-15T07:25:06;102.80;6476.80
49052;DHT22;34866;48.670;18.260;2023-02-15T07:27:32;77.60;6476.80
49052;DHT22;34866;48.670;18.260;2023-02-15T07:29:59;77.60;6476.80
49052;DHT22;34866;48.670;18.260;2023-02-15T07:32:28;77.70;6476.80
49052;DHT22;34866;48.670;18.260;2023-02-15T07:34:53;102.50;6476.80
49052;DHT22;34866;48.670;18.260;2023-02-15T07:37:19;102.50;6476.80
49052;DHT22;34866;48.670;18.260;2023-02-15T07:39:45;128.20;6502.40
49052;DHT22;34866;48.670;18.260;2023-02-15T07:42:10;153.70;537.60
49052;DHT22;34866;48.670;18.260;2023-02-15T07:44:36;128.70;307.20
49052;DHT22;34866;48.670;18.260;2023-02-15T07:47:02;154.40;6502.40
49052;DHT22;34866;48.670;18.260;2023-02-15T07:49:27;154.30;6502.40
49052;DHT22;34866;48.670;18.260;2023-02-15T07:51:53;154.00;6502.40
49052;DHT22;34866;48.670;18.260;2023-02-15T07:54:19;153.90;6502.40
49052;DHT22;34866;48.670;18.260;2023-02-15T07:56:44;154.30;6502.40
49052;DHT22;34866;48.670;18.260;2023-02-15T07:59:10;179.50;6502.40
49052;DHT22;34866;48.670;18.260;2023-02-15T08:01:37;204.80;6502.40
49052;DHT22;34866;48.670;18.260;2023-02-15T08:04:04;179.30;6502.40
49052;DHT22;34866;48.670;18.260;2023-02-15T08:06:33;204.90;6502.40
49052;DHT22;34866;48.670;18.260;2023-02-15T08:08:59;205.40;6502.40
49052;DHT22;34866;48.670;18.260;2023-02-15T08:11:27;230.70;6502.40
49052;DHT22;34866;48.670;18.260;2023-02-15T08:14:16;230.40;6502.40
49052;DHT22;34866;48.670;18.260;2023-02-15T08:16:50;128.50;6502.40
49052;DHT22;34866;48.670;18.260;2023-02-15T08:19:24;179.80;6502.40
49052;DHT22;34866;48.670;18.260;2023-02-15T08:21:58;230.50;6502.40
49052;DHT22;34866;48.670;18.260;2023-02-15T08:24:28;231.00;6502.40
49052;DHT22;34866;48.670;18.260;2023-02-15T08:26:55;230.70;6502.40
49052;DHT22;34866;48.670;18.260;2023-02-15T08:29:23;281.90;6528.00
49052;DHT22;34866;48.670;18.260;2023-02-15T08:31:50;281.70;6528.00
49052;DHT22;34866;48.670;18.260;2023-02-15T08:34:19;256.70;6502.40
49052;DHT22;34866;48.670;18.260;2023-02-15T08:36:45;179.90;6502.40
49052;DHT22;34866;48.670;18.260;2023-02-15T08:39:14;205.30;6502.40
49052;DHT22;34866;48.670;18.260;2023-02-15T08:41:43;204.80;6502.40
49052;DHT22;34866;48.670;18.260;2023-02-15T08:44:09;128.60;6502.40
49052;DHT22;34866;48.670;18.260;2023-02-15T08:46:39;205.10;6502.40
49052;DHT22;34866;48.670;18.260;2023-02-15T08:49:05;256.10;6502.40
49052;DHT22;34866;48.670;18.260;2023-02-15T08:51:34;231.10;6502.40
49052;DHT22;34866;48.670;18.260;2023-02-15T08:54:03;282.30;6528.00
49052;DHT22;34866;48.670;18.260;2023-02-15T08:56:32;282.00;6528.00
49052;DHT22;34866;48.670;18.260;2023-02-15T08:59:00;281.90;6528.00
49052;DHT22;34866;48.670;18.260;2023-02-15T09:01:28;333.70;128.00
49052;DHT22;34866;48.670;18.260;2023-02-15T09:04:02;333.60;128.00
49052;DHT22;34866;48.670;18.260;2023-02-15T09:06:29;435.50;128.00
49052;DHT22;34866;48.670;18.260;2023-02-15T09:08:56;435.80;128.00
49052;DHT22;34866;48.670;18.260;2023-02-15T09:11:24;461.50;128.00
49052;DHT22;34866;48.670;18.260;2023-02-15T09:14:05;384.00;128.00
49052;DHT22;34866;48.670;18.260;2023-02-15T09:16:33;358.50;128.00
49052;DHT22;34866;48.670;18.260;2023-02-15T09:18:59;409.90;128.00
49052;DHT22;34866;48.670;18.260;2023-02-15T09:21:30;410.10;128.00
49052;DHT22;34866;48.670;18.260;2023-02-15T09:24:01;409.80;128.00
49052;DHT22;34866;48.670;18.260;2023-02-15T09:26:29;358.80;128.00
49052;DHT22;34866;48.670;18.260;2023-02-15T09:28:57;358.90;128.00
49052;DHT22;34866;48.670;18.260;2023-02-15T09:31:26;384.80;128.00
49052;DHT22;34866;48.670;18.260;2023-02-15T09:33:53;435.40;128.00
49052;DHT22;34866;48.670;18.260;2023-02-15T09:36:30;461.00;128.00
49052;DHT22;34866;48.670;18.260;2023-02-15T09:38:58;435.90;128.00
49052;DHT22;34866;48.670;18.260;2023-02-15T09:44:13;435.70;128.00
49052;DHT22;34866;48.670;18.260;2023-02-15T09:46:56;436.10;128.00
49052;DHT22;34866;48.670;18.260;2023-02-15T10:03:33;486.80;128.00
49052;DHT22;34866;48.670;18.260;2023-02-15T10:06:05;435.30;128.00
49052;DHT22;34866;48.670;18.260;2023-02-15T10:25:05;358.90;128.00
49052;DHT22;34866;48.670;18.260;2023-02-15T10:27:44;410.50;128.00
49052;DHT22;34866;48.670;18.260;2023-02-15T10:30:15;333.50;128.00
49052;DHT22;34866;48.670;18.260;2023-02-15T10:32:53;409.80;128.00
49052;DHT22;34866;48.670;18.260;2023-02-15T10:50:03;409.70;128.00
49052;DHT22;34866;48.670;18.260;2023-02-15T10:52:59;435.30;128.00
49052;DHT22;34866;48.670;18.260;2023-02-15T11:00:51;436.00;128.00
49052;DHT22;34866;48.670;18.260;2023-02-15T11:06:17;460.90;128.00
49052;DHT22;34866;48.670;18.260;2023-02-15T11:08:59;538.00;128.00
49052;DHT22;34866;48.670;18.260;2023-02-15T11:11:36;537.80;128.00
49052;DHT22;34866;48.670;18.260;2023-02-15T11:16:59;512.90;128.00
49052;DHT22;34866;48.670;18.260;2023-02-15T11:19:34;486.90;128.00
49052;DHT22;34866;48.670;18.260;2023-02-15T11:22:04;436.10;128.00
49052;DHT22;34866;48.670;18.260;2023-02-15T11:24:33;461.70;128.00
49052;DHT22;34866;48.670;18.260;2023-02-15T11:27:12;512.40;128.00
49052;DHT22;34866;48.670;18.260;2023-02-15T11:30:05;512.40;128.00
49052;DHT22;34866;48.670;18.260;2023-02-15T11:32:45;435.80;128.00
49052;DHT22;34866;48.670;18.260;2023-02-15T11:43:00;435.90;128.00
49052;DHT22;34866;48.670;18.260;2023-02-15T11:45:30;461.70;128.00
49052;DHT22;34866;48.670;18.260;2023-02-15T11:47:57;486.90;128.00
49052;DHT22;34866;48.670;18.260;2023-02-15T11:50:26;487.10;128.00
49052;DHT22;34866;48.670;18.260;2023-02-15T11:52:58;410.10;128.00
49052;DHT22;34866;48.670;18.260;2023-02-15T11:55:25;461.60;128.00
49052;DHT22;34866;48.670;18.260;2023-02-15T12:00:39;486.70;128.00
49052;DHT22;34866;48.670;18.260;2023-02-15T12:03:16;512.80;128.00
49052;DHT22;34866;48.670;18.260;2023-02-15T12:05:47;333.00;128.00
49052;DHT22;34866;48.670;18.260;2023-02-15T12:08:20;333.00;128.00
49052;DHT22;34866;48.670;18.260;2023-02-15T12:10:56;384.50;128.00
49052;DHT22;34866;48.670;18.260;2023-02-15T12:13:25;460.80;128.00
49052;DHT22;34866;48.670;18.260;2023-02-15T12:15:53;461.60;128.00
49052;DHT22;34866;48.670;18.260;2023-02-15T12:18:39;410.50;128.00
49052;DHT22;34866;48.670;18.260;2023-02-15T12:21:14;486.60;128.00
49052;DHT22;34866;48.670;18.260;2023-02-15T12:23:48;410.40;128.00
49052;DHT22;34866;48.670;18.260;2023-02-15T12:26:22;409.70;128.00
49052;DHT22;34866;48.670;18.260;2023-02-15T12:28:49;436.00;128.00
49052;DHT22;34866;48.670;18.260;2023-02-15T12:31:27;512.70;128.00
49052;DHT22;34866;48.670;18.260;2023-02-15T12:33:55;460.80;128.00
49052;DHT22;34866;48.670;18.260;2023-02-15T12:36:25;435.30;128.00
49052;DHT22;34866;48.670;18.260;2023-02-15T12:39:05;409.80;128.00
49052;DHT22;34866;48.670;18.260;2023-02-15T12:41:31;358.70;128.00
49052;DHT22;34866;48.670;18.260;2023-02-15T12:44:31;384.90;128.00
49052;DHT22;34866;48.670;18.260;2023-02-15T12:47:01;358.40;128.00
49052;DHT22;34866;48.670;18.260;2023-02-15T12:49:29;332.80;128.00
49052;DHT22;34866;48.670;18.260;2023-02-15T12:51:57;332.90;128.00
49052;DHT22;34866;48.670;18.260;2023-02-15T12:56:50;307.60;128.00
49052;DHT22;34866;48.670;18.260;2023-02-15T12:59:17;307.60;128.00
49052;DHT22;34866;48.670;18.260;2023-02-15T13:01:46;307.20;128.00
49052;DHT22;34866;48.670;18.260;2023-02-15T13:04:26;231.30;6502.40
49052;DHT22;34866;48.670;18.260;2023-02-15T13:06:55;256.00;6502.40
49052;DHT22;34866;48.670;18.260;2023-02-15T13:09:37;205.60;6502.40
49052;DHT22;34866;48.670;18.260;2023-02-15T13:12:22;307.20;128.00
49052;DHT22;34866;48.670;18.260;2023-02-15T13:14:51;230.60;6502.40
49052;DHT22;34866;48.670;18.260;2023-02-15T13:17:21;231.20;6502.40
49052;DHT22;34866;48.670;18.260;2023-02-15T13:19:52;256.30;6502.40
49052;DHT22;34866;48.670;18.260;2023-02-15T13:22:42;230.80;6502.40
49052;DHT22;34866;48.670;18.260;2023-02-15T13:25:20;205.30;6502.40
49052;DHT22;34866;48.670;18.260;2023-02-15T13:27:51;205.30;6502.40
49052;DHT22;34866;48.670;18.260;2023-02-15T13:30:31;205.70;6502.40
49052;DHT22;34866;48.670;18.260;2023-02-15T13:33:32;180.00;6502.40
49052;DHT22;34866;48.670;18.260;2023-02-15T13:36:04;179.40;6502.40
49052;DHT22;34866;48.670;18.260;2023-02-15T13:38:57;179.60;6502.40
49052;DHT22;34866;48.670;18.260;2023-02-15T13:41:32;179.50;6502.40
49052;DHT22;34866;48.670;18.260;2023-02-15T13:47:30;179.60;6502.40
49052;DHT22;34866;48.670;18.260;2023-02-15T13:52:57;179.50;6502.40
49052;DHT22;34866;48.670;18.260;2023-02-15T14:01:22;179.50;6502.40
49052;DHT22;34866;48.670;18.260;2023-02-15T14:07:03;179.90;6502.40
49052;DHT22;34866;48.670;18.260;2023-02-15T14:09:40;154.50;6502.40
49052;DHT22;34866;48.670;18.260;2023-02-15T14:24:56;154.50;6502.40
49052;DHT22;34866;48.670;18.260;2023-02-15T14:27:56;154.30;6502.40
49052;DHT22;34866;48.670;18.260;2023-02-15T14:30:31;179.30;6502.40
49052;DHT22;34866;48.670;18.260;2023-02-15T14:33:47;154.50;6502.40
49052;DHT22;34866;48.670;18.260;2023-02-15T14:35:50;154.20;6502.40
49052;DHT22;34866;48.670;18.260;2023-02-15T14:38:21;154.10;6502.40
49052;DHT22;34866;48.670;18.260;2023-02-15T14:40:54;153.90;6502.40
49052;DHT22;34866;48.670;18.260;2023-02-15T14:43:56;154.30;6502.40
49052;DHT22;34866;48.670;18.260;2023-02-15T14:46:46;154.00;6502.40
49052;DHT22;34866;48.670;18.260;2023-02-15T14:49:25;154.50;6502.40
49052;DHT22;34866;48.670;18.260;2023-02-15T14:51:55;179.30;6502.40
49052;DHT22;34866;48.670;18.260;2023-02-15T15:05:17;256.20;6502.40
49052;DHT22;34866;48.670;18.260;2023-02-15T15:12:56;256.30;6502.40
49052;DHT22;34866;48.670;18.260;2023-02-15T15:20:48;231.10;6502.40
49052;DHT22;34866;48.670;18.260;2023-02-15T15:25:56;230.40;6502.40
49052;DHT22;34866;48.670;18.260;2023-02-15T15:36:50;128.90;6502.40
49052;DHT22;34866;48.670;18.260;2023-02-15T15:42:10;102.60;6476.80
49052;DHT22;34866;48.670;18.260;2023-02-15T15:45:19;102.90;6476.80
49052;DHT22;34866;48.670;18.260;2023-02-15T15:50:32;102.40;6476.80
49052;DHT22;34866;48.670;18.260;2023-02-15T15:53:01;77.60;6476.80
49052;DHT22;34866;48.670;18.260;2023-02-15T15:55:30;77.60;6476.80
49052;DHT22;34866;48.670;18.260;2023-02-15T15:58:02;77.40;6476.80
49052;DHT22;34866;48.670;18.260;2023-02-15T16:00:52;77.40;6476.80
49052;DHT22;34866;48.670;18.260;2023-02-15T16:03:27;77.20;6476.80
49052;DHT22;34866;48.670;18.260;2023-02-15T16:05:53;77.00;128.00
49052;DHT22;34866;48.670;18.260;2023-02-15T16:08:30;77.10;128.00
49052;DHT22;34866;48.670;18.260;2023-02-15T16:10:57;77.00;128.00
49052;DHT22;34866;48.670;18.260;2023-02-15T16:13:23;102.90;128.00
49052;DHT22;34866;48.670;18.260;2023-02-15T16:15:55;52.00;486.40
49052;DHT22;34866;48.670;18.260;2023-02-15T16:18:25;51.90;1024.00
49052;DHT22;34866;48.670;18.260;2023-02-15T16:20:57;51.70;1587.20
49052;DHT22;34866;48.670;18.260;2023-02-15T16:28:52;51.60;1792.00
49052;DHT22;34866;48.670;18.260;2023-02-15T16:31:18;51.40;1996.80
49052;DHT22;34866;48.670;18.260;2023-02-15T16:33:45;51.30;2150.40
49052;DHT22;34866;48.670;18.260;2023-02-15T16:36:19;51.40;1868.80
49052;DHT22;34866;48.670;18.260;2023-02-15T16:41:16;26.50;2099.20
49052;DHT22;34866;48.670;18.260;2023-02-15T16:43:45;26.50;2073.60
49052;DHT22;34866;48.670;18.260;2023-02-15T16:46:34;26.50;2201.60
49052;DHT22;34866;48.670;18.260;2023-02-15T16:49:04;26.40;2201.60
49052;DHT22;34866;48.670;18.260;2023-02-15T16:51:34;26.30;2201.60
49052;DHT22;34866;48.670;18.260;2023-02-15T16:54:05;26.40;2201.60
49052;DHT22;34866;48.670;18.260;2023-02-15T16:56:32;26.40;2201.60
49052;DHT22;34866;48.670;18.260;2023-02-15T16:59:02;26.30;2201.60
49052;DHT22;34866;48.670;18.260;2023-02-15T17:01:31;26.20;2201.60
49052;DHT22;34866;48.670;18.260;2023-02-15T17:09:56;25.80;2201.60
49052;DHT22;34866;48.670;18.260;2023-02-15T17:12:44;25.70;2201.60
49052;DHT22;34866;48.670;18.260;2023-02-15T17:18:46;0.90;2201.60
49052;DHT22;34866;48.670;18.260;2023-02-15T17:21:19;0.90;2201.60
49052;DHT22;34866;48.670;18.260;2023-02-15T17:23:47;0.80;2201.60
49052;DHT22;34866;48.670;18.260;2023-02-15T17:26:29;0.70;2201.60
49052;DHT22;34866;48.670;18.260;2023-02-15T17:31:48;0.80;2201.60
49052;DHT22;34866;48.670;18.260;2023-02-15T17:34:47;0.90;2201.60
49052;DHT22;34866;48.670;18.260;2023-02-15T17:37:43;25.60;2201.60
49052;DHT22;34866;48.670;18.260;2023-02-15T17:40:19;0.80;2201.60
49052;DHT22;34866;48.670;18.260;2023-02-15T17:42:45;0.60;2201.60
49052;DHT22;34866;48.670;18.260;2023-02-15T17:45:11;0.50;2201.60
49052;DHT22;34866;48.670;18.260;2023-02-15T17:47:37;0.30;2201.60
49052;DHT22;34866;48.670;18.260;2023-02-15T17:50:05;0.30;2201.60
49052;DHT22;34866;48.670;18.260;2023-02-15T17:52:31;0.20;2201.60
49052;DHT22;34866;48.670;18.260;2023-02-15T17:54:56;0.20;2201.60
49052;DHT22;34866;48.670;18.260;2023-02-15T17:57:42;0.20;2201.60
49052;DHT22;34866;48.670;18.260;2023-02-15T18:00:12;0.10;2201.60
49052;DHT22;34866;48.670;18.260;2023-02-15T18:02:56;0.10;2201.60
49052;DHT22;34866;48.670;18.260;2023-02-15T18:05:41;0.10;2201.60
49052;DHT22;34866;48.670;18.260;2023-02-15T18:08:27;0.00;2201.60
49052;DHT22;34866;48.670;18.260;2023-02-15T18:11:11;12.90;1817.60
49052;DHT22;34866;48.670;18.260;2023-02-15T18:13:56;12.90;2201.60
49052;DHT22;34866;48.670;18.260;2023-02-15T18:16:28;13.00;2201.60
49052;DHT22;34866;48.670;18.260;2023-02-15T18:18:55;13.00;2201.60
49052;DHT22;34866;48.670;18.260;2023-02-15T18:21:26;13.00;2201.60
49052;DHT22;34866;48.670;18.260;2023-02-15T18:23:52;13.00;2201.60
49052;DHT22;34866;48.670;18.260;2023-02-15T18:26:23;13.10;2201.60
49052;DHT22;34866;48.670;18.260;2023-02-15T18:28:49;13.20;2201.60
49052;DHT22;34866;48.670;18.260;2023-02-15T18:31:16;38.80;2201.60
49052;DHT22;34866;48.670;18.260;2023-02-15T18:36:23;13.20;2201.60
49052;DHT22;34866;48.670;18.260;2023-02-15T18:38:50;13.30;2201.60